createdAt,value
2022-08-08T00:00:51.092Z,14353.54
2022-08-08T00:02:43.208Z,14355.36
2022-08-08T00:06:00.879Z,14349.49
2022-08-08T00:08:38.931Z,14334.53
2022-08-08T00:11:23.461Z,14360.30
2022-08-08T00:14:16.754Z,14356.06
2022-08-08T00:17:22.472Z,14335.94
2022-08-08T00:20:14.606Z,14342.37
2022-08-08T00:22:50.236Z,14344.84
2022-08-08T00:25:28.714Z,14347.18
2022-08-08T00:28:35.803Z,14367.56
2022-08-08T00:32:28.683Z,14344.35
2022-08-08T00:34:27.035Z,14327.38
2022-08-08T00:37:08.168Z,14316.79
2022-08-08T00:41:10.512Z,14334.17
2022-08-08T00:43:11.789Z,14341.08
2022-08-08T00:46:16.401Z,14331.41
2022-08-08T00:48:59.290Z,14328.76
2022-08-08T00:51:45.826Z,14333.88
2022-08-08T00:54:37.182Z,14355.91
2022-08-08T00:57:29.480Z,14333.08
2022-08-08T01:00:04.831Z,14347.92
2022-08-08T01:04:01.425Z,14339.93
2022-08-08T01:06:31.557Z,14342.43
2022-08-08T01:09:36.783Z,14350.68
2022-08-08T01:12:12.314Z,14347.32
2022-08-08T01:14:57.318Z,14341.41
2022-08-08T01:18:02.617Z,14338.60
2022-08-08T01:21:03.061Z,14336.51
2022-08-08T01:24:06.096Z,14342.96
2022-08-08T01:27:10.813Z,14337.79
2022-08-08T01:30:01.637Z,14340.90
2022-08-08T01:33:16.334Z,14342.84
2022-08-08T01:36:14.470Z,14349.32
2022-08-08T01:39:06.568Z,14340.31
2022-08-08T01:41:46.323Z,14341.77
2022-08-08T01:44:34.624Z,14326.13
2022-08-08T01:48:16.781Z,14344.75
2022-08-08T01:50:00.312Z,14333.07
2022-08-08T01:53:03.547Z,14318.27
2022-08-08T01:56:31.118Z,14324.87
2022-08-08T01:58:55.185Z,14349.94
2022-08-08T02:01:59.555Z,14372.77
2022-08-08T02:05:00.427Z,14385.54
2022-08-08T02:07:50.012Z,14375.70
2022-08-08T02:10:46.017Z,14400.39
2022-08-08T02:13:52.615Z,14384.41
2022-08-08T02:16:25.055Z,14379.17
2022-08-08T02:19:26.916Z,14404.18
2022-08-08T02:22:12.297Z,14406.76
2022-08-08T02:24:52.074Z,14416.72
2022-08-08T02:27:42.352Z,14406.18
2022-08-08T02:30:24.687Z,14410.58
2022-08-08T02:33:41.490Z,14396.28
2022-08-08T02:36:57.180Z,14388.12
2022-08-08T02:39:40.795Z,14407.41
2022-08-08T02:42:15.190Z,14410.55
2022-08-08T02:45:21.538Z,14407.22
2022-08-08T02:48:06.768Z,14386.39
2022-08-08T02:50:55.620Z,14395.64
2022-08-08T02:53:25.566Z,14398.61
2022-08-08T02:56:04.322Z,14430.78
2022-08-08T02:58:30.888Z,14406.31
2022-08-08T03:00:57.537Z,14443.35
2022-08-08T03:05:01.608Z,14411.52
2022-08-08T03:06:50.530Z,14422.92
2022-08-08T03:09:54.017Z,14427.61
2022-08-08T03:13:01.186Z,14374.34
2022-08-08T03:16:03.869Z,14409.67
2022-08-08T03:18:57.443Z,14392.56
2022-08-08T03:21:26.885Z,14424.99
2022-08-08T03:24:07.568Z,14428.99
2022-08-08T03:26:43.115Z,14423.15
2022-08-08T03:29:27.030Z,14425.28
2022-08-08T03:32:08.802Z,14428.83
2022-08-08T03:34:39.924Z,14421.66
2022-08-08T03:37:59.629Z,14441.73
2022-08-08T03:40:02.419Z,14427.30
2022-08-08T03:42:31.399Z,14445.91
2022-08-08T03:44:58.778Z,14474.51
2022-08-08T03:47:25.557Z,14432.91
2022-08-08T03:50:20.017Z,14436.86
2022-08-08T03:52:51.685Z,14470.31
2022-08-08T03:55:56.022Z,14474.03
2022-08-08T03:58:34.082Z,14472.52
2022-08-08T04:01:20.568Z,14479.87
2022-08-08T04:03:59.210Z,14451.60
2022-08-08T04:06:29.873Z,14424.10
2022-08-08T04:08:58.787Z,14435.38
2022-08-08T04:11:58.481Z,14413.29
2022-08-08T04:14:44.963Z,14420.52
2022-08-08T04:17:22.557Z,14423.65
2022-08-08T04:19:59.653Z,14428.92
2022-08-08T04:22:29.850Z,14405.75
2022-08-08T04:24:57.400Z,14414.79
2022-08-08T04:28:02.417Z,14417.82
2022-08-08T04:30:17.374Z,14408.17
2022-08-08T04:32:48.124Z,14401.13
2022-08-08T04:35:22.350Z,14379.94
2022-08-08T04:37:49.656Z,14360.75
2022-08-08T04:40:19.074Z,14399.22
2022-08-08T04:42:57.020Z,14377.87
2022-08-08T04:45:27.922Z,14378.88
2022-08-08T04:47:55.244Z,14400.14
2022-08-08T04:50:25.436Z,14352.05
2022-08-08T04:53:01.058Z,14366.13
2022-08-08T04:55:47.561Z,14358.04
2022-08-08T04:58:18.547Z,14355.45
2022-08-08T05:00:47.695Z,14352.04
2022-08-08T05:03:19.160Z,14342.27
2022-08-08T05:06:12.996Z,14351.53
2022-08-08T05:08:51.382Z,14397.99
2022-08-08T05:11:23.881Z,14377.63
2022-08-08T05:13:57.859Z,14363.02
2022-08-08T05:16:51.150Z,14395.38
2022-08-08T05:20:09.841Z,14400.36
2022-08-08T05:22:08.132Z,14357.49
2022-08-08T05:24:37.466Z,14364.66
2022-08-08T05:27:05.458Z,14355.24
2022-08-08T05:29:32.173Z,14353.58
2022-08-08T05:32:06.475Z,14349.87
2022-08-08T05:34:44.362Z,14355.53
2022-08-08T05:37:18.859Z,14367.45
2022-08-08T05:39:50.986Z,14342.71
2022-08-08T05:42:19.598Z,14341.98
2022-08-08T05:44:57.357Z,14362.33
2022-08-08T05:47:41.774Z,14378.53
2022-08-08T05:50:18.364Z,14314.77
2022-08-08T05:52:45.030Z,14352.07
2022-08-08T05:55:14.583Z,14316.60
2022-08-08T05:58:04.580Z,14336.19
2022-08-08T06:00:34.054Z,14381.53
2022-08-08T06:03:02.676Z,14381.13
2022-08-08T06:05:34.225Z,14376.45
2022-08-08T06:08:10.537Z,14370.44
2022-08-08T06:10:53.797Z,14353.19
2022-08-08T06:13:23.590Z,14373.00
2022-08-08T06:15:53.775Z,14323.28
2022-08-08T06:18:24.320Z,14330.46
2022-08-08T06:21:03.648Z,14275.41
2022-08-08T06:23:52.735Z,14271.75
2022-08-08T06:26:38.327Z,14266.60
2022-08-08T06:29:48.824Z,14236.87
2022-08-08T06:32:15.282Z,14245.16
2022-08-08T06:34:52.473Z,14242.68
2022-08-08T06:37:45.377Z,14255.90
2022-08-08T06:40:20.748Z,14173.34
2022-08-08T06:43:09.567Z,14098.79
2022-08-08T06:45:38.976Z,14042.25
2022-08-08T06:48:06.161Z,13973.65
2022-08-08T06:50:38.446Z,13942.39
2022-08-08T06:53:09.585Z,13923.18
2022-08-08T06:55:42.162Z,13890.92
2022-08-08T06:58:10.398Z,13914.76
2022-08-08T07:00:40.981Z,13981.06
2022-08-08T07:04:35.954Z,13928.83
2022-08-08T07:06:19.175Z,13834.19
2022-08-08T07:08:49.672Z,13809.01
2022-08-08T07:11:22.052Z,13787.66
2022-08-08T07:14:01.176Z,13796.40
2022-08-08T07:16:56.270Z,13830.28
2022-08-08T07:19:40.179Z,13837.60
2022-08-08T07:22:11.848Z,13819.74
2022-08-08T07:24:58.658Z,13827.11
2022-08-08T07:27:35.427Z,13829.27
2022-08-08T07:30:21.275Z,13833.18
2022-08-08T07:32:53.391Z,13903.23
2022-08-08T07:35:21.745Z,13927.96
2022-08-08T07:38:04.861Z,13973.86
2022-08-08T07:40:38.330Z,13915.85
2022-08-08T07:43:09.359Z,13881.15
2022-08-08T07:46:05.319Z,13906.57
2022-08-08T07:48:25.626Z,13933.12
2022-08-08T07:50:59.415Z,13901.47
2022-08-08T07:54:00.793Z,13910.82
2022-08-08T07:56:36.220Z,13927.94
2022-08-08T07:59:14.245Z,13850.39
2022-08-08T08:02:35.200Z,13817.14
2022-08-08T08:04:46.651Z,13784.90
2022-08-08T08:07:17.130Z,13835.87
2022-08-08T08:09:44.502Z,13760.01
2022-08-08T08:12:31.660Z,13746.55
2022-08-08T08:15:09.462Z,13783.21
2022-08-08T08:17:48.859Z,13817.08
2022-08-08T08:20:18.740Z,13796.81
2022-08-08T08:22:47.415Z,13824.46
2022-08-08T08:25:16.919Z,13800.67
2022-08-08T08:27:47.302Z,13818.83
2022-08-08T08:30:14.508Z,13817.09
2022-08-08T08:32:51.517Z,13783.06
2022-08-08T08:35:21.482Z,13822.02
2022-08-08T08:38:16.193Z,13830.45
2022-08-08T08:40:43.957Z,13827.00
2022-08-08T08:43:18.698Z,13842.52
2022-08-08T08:45:47.744Z,13805.92
2022-08-08T08:48:19.943Z,13746.93
2022-08-08T08:50:51.935Z,13726.31
2022-08-08T08:53:28.042Z,13771.25
2022-08-08T08:56:07.807Z,13767.78
2022-08-08T08:58:50.409Z,13727.40
2022-08-08T09:01:22.965Z,13672.08
2022-08-08T09:03:51.408Z,13668.38
2022-08-08T09:06:34.326Z,13681.34
2022-08-08T09:09:35.544Z,13681.40
2022-08-08T09:12:10.993Z,13644.05
2022-08-08T09:14:42.882Z,13595.45
2022-08-08T09:17:17.940Z,13557.28
2022-08-08T09:21:56.135Z,13626.30
2022-08-08T09:22:35.088Z,13652.40
2022-08-08T09:25:04.522Z,13658.67
2022-08-08T09:27:56.255Z,13663.00
2022-08-08T09:30:19.960Z,13649.67
2022-08-08T09:33:12.775Z,13621.13
2022-08-08T09:35:49.863Z,13582.24
2022-08-08T09:38:53.772Z,13546.78
2022-08-08T09:41:33.354Z,13577.29
2022-08-08T09:44:29.796Z,13687.50
2022-08-08T09:47:26.539Z,13729.01
2022-08-08T09:49:58.915Z,13745.25
2022-08-08T09:52:56.146Z,13751.48
2022-08-08T09:55:51.350Z,13731.73
2022-08-08T09:58:25.926Z,13717.58
2022-08-08T10:01:03.246Z,13744.56
2022-08-08T10:03:46.090Z,13756.73
2022-08-08T10:06:26.874Z,13771.40
2022-08-08T10:08:57.336Z,13770.75
2022-08-08T10:12:23.169Z,13754.43
2022-08-08T10:14:35.239Z,13740.45
2022-08-08T10:16:59.082Z,13749.33
2022-08-08T10:19:46.170Z,13772.52
2022-08-08T10:22:25.974Z,13728.92
2022-08-08T10:25:06.556Z,13727.32
2022-08-08T10:27:43.391Z,13737.35
2022-08-08T10:30:16.712Z,13725.15
2022-08-08T10:33:00.849Z,13667.41
2022-08-08T10:36:08.010Z,13677.44
2022-08-08T10:38:20.161Z,13728.22
2022-08-08T10:40:51.783Z,13757.45
2022-08-08T10:43:18.763Z,13759.41
2022-08-08T10:45:56.618Z,13766.40
2022-08-08T10:48:57.476Z,13720.10
2022-08-08T10:51:24.149Z,13723.60
2022-08-08T10:53:58.927Z,13765.51
2022-08-08T10:56:34.883Z,13758.46
2022-08-08T10:59:07.099Z,13733.34
2022-08-08T11:01:36.526Z,13725.41
2022-08-08T11:04:08.463Z,13725.71
2022-08-08T11:06:41.770Z,13725.51
2022-08-08T11:09:20.189Z,13724.35
2022-08-08T11:12:06.408Z,13698.08
2022-08-08T11:14:55.587Z,13721.69
2022-08-08T11:17:59.489Z,13697.52
2022-08-08T11:20:24.975Z,13665.59
2022-08-08T11:22:56.911Z,13677.56
2022-08-08T11:25:53.000Z,13662.73
2022-08-08T11:28:25.779Z,13718.05
2022-08-08T11:30:56.418Z,13714.88
2022-08-08T11:33:52.978Z,13717.72
2022-08-08T11:36:13.283Z,13711.65
2022-08-08T11:38:54.234Z,13687.44
2022-08-08T11:41:33.561Z,13662.87
2022-08-08T11:44:01.670Z,13649.91
2022-08-08T11:46:31.484Z,13653.24
2022-08-08T11:49:04.043Z,13640.28
2022-08-08T11:51:40.483Z,13647.07
2022-08-08T11:54:32.328Z,13626.65
2022-08-08T11:57:13.943Z,13632.82
2022-08-08T12:00:06.288Z,13621.47
2022-08-08T12:02:51.054Z,13640.33
2022-08-08T12:05:18.744Z,13639.56
2022-08-08T12:07:56.722Z,13600.17
2022-08-08T12:10:26.574Z,13546.11
2022-08-08T12:13:09.520Z,13589.32
2022-08-08T12:15:46.755Z,13593.87
2022-08-08T12:18:16.083Z,13594.06
2022-08-08T12:20:48.406Z,13585.32
2022-08-08T12:23:30.600Z,13595.19
2022-08-08T12:26:16.759Z,13614.46
2022-08-08T12:28:54.491Z,13589.95
2022-08-08T12:31:30.458Z,13587.42
2022-08-08T12:34:06.260Z,13590.10
2022-08-08T12:36:46.336Z,13566.40
2022-08-08T12:39:13.448Z,13562.42
2022-08-08T12:41:57.543Z,13598.75
2022-08-08T12:44:48.235Z,13603.26
2022-08-08T12:47:57.855Z,13603.76
2022-08-08T12:50:15.074Z,13601.17
2022-08-08T12:52:52.475Z,13590.27
2022-08-08T12:55:35.412Z,13600.90
2022-08-08T12:58:09.973Z,13529.52
2022-08-08T13:00:42.658Z,13519.44
2022-08-08T13:03:22.542Z,13536.42
2022-08-08T13:06:04.031Z,13529.65
2022-08-08T13:08:53.425Z,13556.14
2022-08-08T13:12:24.568Z,13531.88
2022-08-08T13:14:19.901Z,13562.61
2022-08-08T13:16:49.362Z,13616.67
2022-08-08T13:19:17.907Z,13559.31
2022-08-08T13:21:53.376Z,13546.26
2022-08-08T13:24:42.384Z,13566.07
2022-08-08T13:27:17.338Z,13578.04
2022-08-08T13:29:52.801Z,13569.19
2022-08-08T13:32:25.293Z,13549.21
2022-08-08T13:34:57.644Z,13542.91
2022-08-08T13:37:52.227Z,13540.79
2022-08-08T13:40:17.430Z,13525.71
2022-08-08T13:42:53.713Z,13531.11
2022-08-08T13:45:23.995Z,13537.62
2022-08-08T13:48:03.030Z,13542.32
2022-08-08T13:50:49.324Z,13538.17
2022-08-08T13:53:31.408Z,13512.76
2022-08-08T13:56:02.939Z,13472.26
2022-08-08T13:58:30.490Z,13479.95
2022-08-08T14:00:57.727Z,13492.71
2022-08-08T14:03:52.486Z,13496.46
2022-08-08T14:06:44.803Z,13483.55
2022-08-08T14:09:24.339Z,13517.85
2022-08-08T14:11:58.886Z,13531.10
2022-08-08T14:14:44.336Z,13518.88
2022-08-08T14:17:36.333Z,13542.52
2022-08-08T14:20:06.826Z,13526.73
2022-08-08T14:22:42.969Z,13510.35
2022-08-08T14:25:15.527Z,13489.25
2022-08-08T14:27:59.963Z,13485.67
2022-08-08T14:30:34.555Z,13526.65
2022-08-08T14:33:01.824Z,13487.28
2022-08-08T14:35:35.632Z,13457.66
2022-08-08T14:38:34.723Z,13463.28
2022-08-08T14:40:58.819Z,13485.28
2022-08-08T14:44:02.702Z,13486.38
2022-08-08T14:46:15.714Z,13494.24
2022-08-08T14:48:56.934Z,13486.63
2022-08-08T14:51:47.312Z,13501.48
2022-08-08T14:54:14.095Z,13497.02
2022-08-08T14:56:48.457Z,13508.00
2022-08-08T14:59:22.162Z,13506.96
2022-08-08T15:01:58.660Z,13530.70
2022-08-08T15:04:26.417Z,13504.26
2022-08-08T15:06:53.207Z,13506.26
2022-08-08T15:09:19.857Z,13538.86
2022-08-08T15:11:53.456Z,13490.61
2022-08-08T15:14:25.067Z,13496.72
2022-08-08T15:16:53.789Z,13471.54
2022-08-08T15:19:21.268Z,13477.11
2022-08-08T15:21:50.539Z,13487.53
2022-08-08T15:24:17.179Z,13492.58
2022-08-08T15:26:52.629Z,13492.08
2022-08-08T15:29:22.537Z,13490.15
2022-08-08T15:32:19.991Z,13522.05
2022-08-08T15:34:38.736Z,13499.21
2022-08-08T15:37:06.690Z,13489.93
2022-08-08T15:39:39.624Z,13495.79
2022-08-08T15:42:13.168Z,13445.73
2022-08-08T15:44:45.305Z,13515.15
2022-08-08T15:47:16.156Z,13472.95
2022-08-08T15:49:46.123Z,13484.29
2022-08-08T15:52:17.685Z,13520.14
2022-08-08T15:54:51.314Z,13497.40
2022-08-08T15:57:19.080Z,13523.83
2022-08-08T16:00:05.623Z,13522.52
2022-08-08T16:02:33.024Z,13491.07
2022-08-08T16:05:04.015Z,13490.93
2022-08-08T16:07:51.172Z,13462.69
2022-08-08T16:13:20.914Z,13600.35
2022-08-08T16:13:33.512Z,13715.75
2022-08-08T16:15:57.259Z,13744.86
2022-08-08T16:18:26.585Z,13738.98
2022-08-08T16:20:53.330Z,13743.21
2022-08-08T16:23:19.977Z,13733.39
2022-08-08T16:25:54.701Z,13722.14
2022-08-08T16:28:34.916Z,13737.26
2022-08-08T16:31:07.936Z,13743.33
2022-08-08T16:33:39.199Z,13739.81
2022-08-08T16:36:12.989Z,13717.47
2022-08-08T16:38:47.713Z,13741.85
2022-08-08T16:41:22.736Z,13755.96
2022-08-08T16:43:52.125Z,13762.37
2022-08-08T16:46:37.620Z,13752.19
2022-08-08T16:49:08.805Z,13747.86
2022-08-08T16:55:04.699Z,13757.27
2022-08-08T16:55:19.496Z,13745.18
2022-08-08T16:58:12.000Z,13734.94
2022-08-08T16:59:59.336Z,13752.75
2022-08-08T17:02:38.672Z,13752.66
2022-08-08T17:05:10.205Z,13766.08
2022-08-08T17:07:40.672Z,13730.50
2022-08-08T17:10:10.049Z,13717.07
2022-08-08T17:12:38.755Z,13553.76
2022-08-08T17:15:20.578Z,13560.76
2022-08-08T17:18:03.139Z,13582.08
2022-08-08T17:20:32.330Z,13578.84
2022-08-08T17:23:25.869Z,13596.90
2022-08-08T17:25:52.440Z,13592.88
2022-08-08T17:28:30.728Z,13593.04
2022-08-08T17:31:43.640Z,13596.62
2022-08-08T17:34:48.198Z,13607.24
2022-08-08T17:36:58.020Z,13619.99
2022-08-08T17:40:05.173Z,13610.56
2022-08-08T17:42:15.959Z,13614.19
2022-08-08T17:44:45.669Z,13630.65
2022-08-08T17:47:23.272Z,13625.61
2022-08-08T17:49:52.484Z,13626.88
2022-08-08T17:52:23.023Z,13642.72
2022-08-08T17:54:51.936Z,13613.16
2022-08-08T17:57:23.680Z,13626.03
2022-08-08T17:59:51.694Z,13651.06
2022-08-08T18:02:26.213Z,13667.49
2022-08-08T18:04:56.129Z,13669.81
2022-08-08T18:08:01.965Z,13649.41
2022-08-08T18:10:09.836Z,13679.05
2022-08-08T18:12:39.018Z,13687.65
2022-08-08T18:15:07.356Z,13679.47
2022-08-08T18:18:05.226Z,13714.13
2022-08-08T18:20:43.081Z,13734.35
2022-08-08T18:23:14.650Z,13741.66
2022-08-08T18:25:42.402Z,13756.65
2022-08-08T18:28:12.993Z,13781.00
2022-08-08T18:30:41.537Z,13773.60
2022-08-08T18:33:10.592Z,13773.39
2022-08-08T18:35:48.548Z,13796.26
2022-08-08T18:38:17.102Z,13783.27
2022-08-08T18:40:46.164Z,13779.86
2022-08-08T18:43:16.603Z,13765.42
2022-08-08T18:46:53.283Z,13775.19
2022-08-08T18:48:31.698Z,13787.58
2022-08-08T18:50:59.065Z,13789.49
2022-08-08T18:54:00.218Z,13782.81
2022-08-08T18:56:25.292Z,13764.42
2022-08-08T18:58:53.873Z,13796.82
2022-08-08T19:02:25.576Z,13804.91
2022-08-08T19:04:12.503Z,13805.55
2022-08-08T19:06:39.872Z,13781.45
2022-08-08T19:09:13.381Z,13817.63
2022-08-08T19:11:46.364Z,13812.88
2022-08-08T19:14:20.271Z,13819.96
2022-08-08T19:16:48.406Z,13825.83
2022-08-08T19:19:15.513Z,13830.03
2022-08-08T19:21:47.936Z,13818.53
2022-08-08T19:24:34.195Z,13817.50
2022-08-08T19:27:04.853Z,13829.42
2022-08-08T19:29:34.017Z,13826.23
2022-08-08T19:32:02.379Z,13831.99
2022-08-08T19:34:38.779Z,13847.14
2022-08-08T19:37:08.359Z,13865.13
2022-08-08T19:39:45.523Z,13862.01
2022-08-08T19:42:15.373Z,13849.99
2022-08-08T19:44:43.245Z,13841.79
2022-08-08T19:47:14.479Z,13847.92
2022-08-08T19:49:43.061Z,13848.94
2022-08-08T19:52:10.695Z,13860.40
2022-08-08T19:54:40.093Z,13878.32
2022-08-08T19:57:09.921Z,13875.02
2022-08-08T19:59:38.314Z,13887.84
2022-08-08T20:02:05.593Z,13899.62
2022-08-08T20:04:33.475Z,13898.81
2022-08-08T20:08:27.865Z,13915.00
2022-08-08T20:09:56.551Z,13925.71
2022-08-08T20:12:32.713Z,13893.39
2022-08-08T20:15:14.612Z,13895.80
2022-08-08T20:17:46.118Z,13886.24
2022-08-08T20:20:19.608Z,13896.37
2022-08-08T20:22:52.723Z,13886.82
2022-08-08T20:25:21.670Z,13881.57
2022-08-08T20:27:50.217Z,13878.09
2022-08-08T20:30:52.542Z,13882.46
2022-08-08T20:33:20.164Z,13933.78
2022-08-08T20:35:57.102Z,13915.26
2022-08-08T20:38:29.128Z,13920.77
2022-08-08T20:40:59.233Z,14092.06
2022-08-08T20:43:44.218Z,14098.15
2022-08-08T20:46:12.986Z,14112.06
2022-08-08T20:48:39.689Z,14110.04
2022-08-08T20:51:09.717Z,14107.52
2022-08-08T20:53:58.793Z,14117.58
2022-08-08T20:56:35.139Z,14138.61
2022-08-08T20:59:08.887Z,14135.00
2022-08-08T21:02:06.726Z,14132.76
2022-08-08T21:04:27.626Z,14124.47
2022-08-08T21:06:56.031Z,14145.33
2022-08-08T21:09:23.044Z,14169.69
2022-08-08T21:11:50.810Z,14152.29
2022-08-08T21:14:30.266Z,14191.31
2022-08-08T21:17:01.299Z,14165.39
2022-08-08T21:19:33.915Z,14186.57
2022-08-08T21:22:11.776Z,14186.37
2022-08-08T21:24:39.701Z,14191.00
2022-08-08T21:27:38.443Z,14212.83
2022-08-08T21:30:03.869Z,14204.90
2022-08-08T21:32:34.614Z,14198.89
2022-08-08T21:36:13.616Z,14199.60
2022-08-08T21:37:55.305Z,14189.46
2022-08-08T21:40:31.109Z,14183.31
2022-08-08T21:42:59.183Z,14198.90
2022-08-08T21:47:59.698Z,14186.58
2022-08-08T21:48:19.702Z,14222.24
2022-08-08T21:50:48.237Z,14202.58
2022-08-08T21:54:31.635Z,14212.28
2022-08-08T21:56:28.110Z,14198.82
2022-08-08T21:58:54.798Z,14185.75
2022-08-08T22:01:39.471Z,14186.50
2022-08-08T22:04:11.014Z,14202.54
2022-08-08T22:06:40.405Z,14220.57
2022-08-08T22:09:09.014Z,14242.13
2022-08-08T22:11:51.135Z,14227.16
2022-08-08T22:14:26.984Z,14211.58
2022-08-08T22:16:56.428Z,14226.82
2022-08-08T22:19:29.039Z,14210.63
2022-08-08T22:21:56.896Z,14221.61
2022-08-08T22:24:23.905Z,14219.77
2022-08-08T22:27:01.320Z,14232.81
2022-08-08T22:29:59.552Z,14269.17
2022-08-08T22:32:17.947Z,14279.13
2022-08-08T22:34:50.788Z,14272.19
2022-08-08T22:37:49.455Z,14266.26
2022-08-08T22:40:16.610Z,14243.51
2022-08-08T22:42:47.248Z,14275.85
2022-08-08T22:45:14.815Z,14248.88
2022-08-08T22:47:47.061Z,14241.79
2022-08-08T22:50:25.528Z,14259.17
2022-08-08T22:54:28.463Z,14248.31
2022-08-08T22:55:59.190Z,14251.97
2022-08-08T22:58:34.184Z,14286.33
2022-08-08T23:01:26.658Z,14257.23
2022-08-08T23:03:57.015Z,14260.70
2022-08-08T23:06:27.135Z,14289.04
2022-08-08T23:09:00.205Z,14343.76
2022-08-08T23:11:30.950Z,14284.18
2022-08-08T23:14:19.644Z,14319.91
2022-08-08T23:16:54.793Z,14297.60
2022-08-08T23:19:30.848Z,14317.83
2022-08-08T23:22:05.083Z,14336.91
2022-08-08T23:24:36.882Z,14331.96
2022-08-08T23:27:09.233Z,14317.81
2022-08-08T23:29:37.278Z,14310.47
2022-08-08T23:32:05.444Z,14330.80
2022-08-08T23:34:33.915Z,14334.56
2022-08-08T23:37:02.505Z,14326.82
2022-08-08T23:39:42.023Z,14323.00
2022-08-08T23:42:16.374Z,14311.79
2022-08-08T23:44:43.048Z,14340.96
2022-08-08T23:49:05.977Z,14338.32
2022-08-08T23:50:03.152Z,14297.41
2022-08-08T23:52:32.906Z,14332.14
2022-08-08T23:55:07.116Z,14344.17
2022-08-08T23:57:52.843Z,14329.51
